sensor_id;sensor_type;location;lat;lon;timestamp;temperature;humidity
11426;DHT22;5769;47.998;7.788;2023-08-24T00:00:50;24.00;85.70
11426;DHT22;5769;47.998;7.788;2023-08-24T00:03:17;24.00;85.70
11426;DHT22;5769;47.998;7.788;2023-08-24T00:05:44;24.00;85.70
11426;DHT22;5769;47.998;7.788;2023-08-24T00:08:11;24.00;85.80
11426;DHT22;5769;47.998;7.788;2023-08-24T00:10:38;24.00;85.80
11426;DHT22;5769;47.998;7.788;2023-08-24T00:13:06;24.00;85.70
11426;DHT22;5769;47.998;7.788;2023-08-24T00:15:33;24.00;85.80
11426;DHT22;5769;47.998;7.788;2023-08-24T00:18:01;24.00;85.70
11426;DHT22;5769;47.998;7.788;2023-08-24T00:20:28;24.00;85.70
11426;DHT22;5769;47.998;7.788;2023-08-24T00:22:54;24.00;85.70
11426;DHT22;5769;47.998;7.788;2023-08-24T00:25:21;24.00;85.70
11426;DHT22;5769;47.998;7.788;2023-08-24T00:27:48;24.00;85.80
11426;DHT22;5769;47.998;7.788;2023-08-24T00:30:16;24.00;85.80
11426;DHT22;5769;47.998;7.788;2023-08-24T00:32:42;24.00;85.80
11426;DHT22;5769;47.998;7.788;2023-08-24T00:35:09;24.00;86.50
11426;DHT22;5769;47.998;7.788;2023-08-24T00:37:37;24.00;85.80
11426;DHT22;5769;47.998;7.788;2023-08-24T00:40:05;24.00;85.80
11426;DHT22;5769;47.998;7.788;2023-08-24T00:42:38;24.00;85.70
11426;DHT22;5769;47.998;7.788;2023-08-24T00:45:06;24.00;85.70
11426;DHT22;5769;47.998;7.788;2023-08-24T00:47:36;24.00;85.70
11426;DHT22;5769;47.998;7.788;2023-08-24T00:50:04;24.00;85.60
11426;DHT22;5769;47.998;7.788;2023-08-24T00:52:31;24.00;85.60
11426;DHT22;5769;47.998;7.788;2023-08-24T00:54:59;24.00;85.70
11426;DHT22;5769;47.998;7.788;2023-08-24T00:57:26;24.00;85.70
11426;DHT22;5769;47.998;7.788;2023-08-24T00:59:53;24.00;85.70
11426;DHT22;5769;47.998;7.788;2023-08-24T01:02:20;24.00;85.70
11426;DHT22;5769;47.998;7.788;2023-08-24T01:04:48;24.00;85.70
11426;DHT22;5769;47.998;7.788;2023-08-24T01:07:15;24.00;85.70
11426;DHT22;5769;47.998;7.788;2023-08-24T01:09:43;24.00;85.70
11426;DHT22;5769;47.998;7.788;2023-08-24T01:12:17;24.00;85.60
11426;DHT22;5769;47.998;7.788;2023-08-24T01:14:52;24.00;85.60
11426;DHT22;5769;47.998;7.788;2023-08-24T01:17:22;24.00;85.60
11426;DHT22;5769;47.998;7.788;2023-08-24T01:19:51;24.00;85.60
11426;DHT22;5769;47.998;7.788;2023-08-24T01:22:27;24.00;85.60
11426;DHT22;5769;47.998;7.788;2023-08-24T01:25:05;24.00;85.60
11426;DHT22;5769;47.998;7.788;2023-08-24T01:27:36;24.00;85.60
11426;DHT22;5769;47.998;7.788;2023-08-24T01:30:03;24.00;85.60
11426;DHT22;5769;47.998;7.788;2023-08-24T01:32:30;24.00;85.60
11426;DHT22;5769;47.998;7.788;2023-08-24T01:34:58;24.00;85.50
11426;DHT22;5769;47.998;7.788;2023-08-24T01:37:25;24.00;85.50
11426;DHT22;5769;47.998;7.788;2023-08-24T01:39:58;24.00;85.60
11426;DHT22;5769;47.998;7.788;2023-08-24T01:42:31;24.00;85.50
11426;DHT22;5769;47.998;7.788;2023-08-24T01:45:03;24.00;85.50
11426;DHT22;5769;47.998;7.788;2023-08-24T01:47:34;24.00;85.50
11426;DHT22;5769;47.998;7.788;2023-08-24T01:50:02;24.00;85.50
11426;DHT22;5769;47.998;7.788;2023-08-24T01:52:30;24.00;85.50
11426;DHT22;5769;47.998;7.788;2023-08-24T01:54:57;23.90;85.40
11426;DHT22;5769;47.998;7.788;2023-08-24T01:57:25;23.90;85.40
11426;DHT22;5769;47.998;7.788;2023-08-24T01:59:51;24.00;85.50
11426;DHT22;5769;47.998;7.788;2023-08-24T02:02:20;24.00;85.40
11426;DHT22;5769;47.998;7.788;2023-08-24T02:04:49;23.90;85.40
11426;DHT22;5769;47.998;7.788;2023-08-24T02:07:16;23.90;85.40
11426;DHT22;5769;47.998;7.788;2023-08-24T02:09:43;23.90;85.40
11426;DHT22;5769;47.998;7.788;2023-08-24T02:12:09;23.90;85.40
11426;DHT22;5769;47.998;7.788;2023-08-24T02:14:36;24.00;85.50
11426;DHT22;5769;47.998;7.788;2023-08-24T02:17:03;23.90;85.40
11426;DHT22;5769;47.998;7.788;2023-08-24T02:19:31;24.00;85.50
11426;DHT22;5769;47.998;7.788;2023-08-24T02:21:57;23.90;85.40
11426;DHT22;5769;47.998;7.788;2023-08-24T02:24:24;23.90;85.30
11426;DHT22;5769;47.998;7.788;2023-08-24T02:26:51;23.90;85.30
11426;DHT22;5769;47.998;7.788;2023-08-24T02:29:18;23.90;85.40
11426;DHT22;5769;47.998;7.788;2023-08-24T02:31:44;23.90;85.40
11426;DHT22;5769;47.998;7.788;2023-08-24T02:34:11;23.90;85.40
11426;DHT22;5769;47.998;7.788;2023-08-24T02:36:39;23.90;85.40
11426;DHT22;5769;47.998;7.788;2023-08-24T02:39:06;23.90;85.40
11426;DHT22;5769;47.998;7.788;2023-08-24T02:41:34;23.90;85.40
11426;DHT22;5769;47.998;7.788;2023-08-24T02:44:01;23.90;85.40
11426;DHT22;5769;47.998;7.788;2023-08-24T02:46:28;23.90;85.60
11426;DHT22;5769;47.998;7.788;2023-08-24T02:48:55;23.90;85.60
11426;DHT22;5769;47.998;7.788;2023-08-24T02:51:22;23.90;85.60
11426;DHT22;5769;47.998;7.788;2023-08-24T02:53:50;23.90;85.60
11426;DHT22;5769;47.998;7.788;2023-08-24T02:56:17;23.90;85.60
11426;DHT22;5769;47.998;7.788;2023-08-24T02:58:44;23.90;85.60
11426;DHT22;5769;47.998;7.788;2023-08-24T03:01:11;23.90;85.60
11426;DHT22;5769;47.998;7.788;2023-08-24T03:03:37;24.00;85.70
11426;DHT22;5769;47.998;7.788;2023-08-24T03:06:05;23.90;85.60
11426;DHT22;5769;47.998;7.788;2023-08-24T03:08:33;23.90;85.70
11426;DHT22;5769;47.998;7.788;2023-08-24T03:11:02;23.90;85.70
11426;DHT22;5769;47.998;7.788;2023-08-24T03:13:29;23.90;85.70
11426;DHT22;5769;47.998;7.788;2023-08-24T03:15:56;23.90;85.60
11426;DHT22;5769;47.998;7.788;2023-08-24T03:18:23;23.90;85.70
11426;DHT22;5769;47.998;7.788;2023-08-24T03:20:50;23.90;85.70
11426;DHT22;5769;47.998;7.788;2023-08-24T03:23:16;23.90;85.70
11426;DHT22;5769;47.998;7.788;2023-08-24T03:25:43;23.90;85.70
11426;DHT22;5769;47.998;7.788;2023-08-24T03:28:11;23.90;85.70
11426;DHT22;5769;47.998;7.788;2023-08-24T03:30:39;23.90;85.70
11426;DHT22;5769;47.998;7.788;2023-08-24T03:33:06;23.90;85.70
11426;DHT22;5769;47.998;7.788;2023-08-24T03:35:33;23.90;85.70
11426;DHT22;5769;47.998;7.788;2023-08-24T03:38:00;23.90;85.80
11426;DHT22;5769;47.998;7.788;2023-08-24T03:40:27;23.90;85.70
11426;DHT22;5769;47.998;7.788;2023-08-24T03:42:53;23.90;85.70
11426;DHT22;5769;47.998;7.788;2023-08-24T03:45:22;23.90;85.70
11426;DHT22;5769;47.998;7.788;2023-08-24T03:47:49;23.90;85.70
11426;DHT22;5769;47.998;7.788;2023-08-24T03:50:16;23.90;85.70
11426;DHT22;5769;47.998;7.788;2023-08-24T03:52:42;23.90;85.70
11426;DHT22;5769;47.998;7.788;2023-08-24T03:55:09;23.90;85.70
11426;DHT22;5769;47.998;7.788;2023-08-24T03:57:36;23.90;85.70
11426;DHT22;5769;47.998;7.788;2023-08-24T04:00:03;23.90;85.70
11426;DHT22;5769;47.998;7.788;2023-08-24T04:02:33;23.90;85.70
11426;DHT22;5769;47.998;7.788;2023-08-24T04:05:00;23.90;85.70
11426;DHT22;5769;47.998;7.788;2023-08-24T04:07:27;23.90;85.70
11426;DHT22;5769;47.998;7.788;2023-08-24T04:09:53;23.90;85.70
11426;DHT22;5769;47.998;7.788;2023-08-24T04:12:20;23.90;85.70
11426;DHT22;5769;47.998;7.788;2023-08-24T04:14:47;23.90;85.70
11426;DHT22;5769;47.998;7.788;2023-08-24T04:17:14;23.90;85.70
11426;DHT22;5769;47.998;7.788;2023-08-24T04:19:42;23.90;85.70
11426;DHT22;5769;47.998;7.788;2023-08-24T04:22:09;23.90;85.70
11426;DHT22;5769;47.998;7.788;2023-08-24T04:24:35;23.90;85.70
11426;DHT22;5769;47.998;7.788;2023-08-24T04:27:02;23.90;85.70
11426;DHT22;5769;47.998;7.788;2023-08-24T04:29:29;23.90;85.70
11426;DHT22;5769;47.998;7.788;2023-08-24T04:31:55;23.90;85.70
11426;DHT22;5769;47.998;7.788;2023-08-24T04:34:22;23.90;85.70
11426;DHT22;5769;47.998;7.788;2023-08-24T04:36:50;23.90;85.70
11426;DHT22;5769;47.998;7.788;2023-08-24T04:39:17;23.90;85.70
11426;DHT22;5769;47.998;7.788;2023-08-24T04:41:44;23.90;85.70
11426;DHT22;5769;47.998;7.788;2023-08-24T04:44:11;23.90;85.70
11426;DHT22;5769;47.998;7.788;2023-08-24T04:46:38;23.90;85.70
11426;DHT22;5769;47.998;7.788;2023-08-24T04:49:04;23.90;85.70
11426;DHT22;5769;47.998;7.788;2023-08-24T04:51:32;23.90;85.70
11426;DHT22;5769;47.998;7.788;2023-08-24T04:54:00;23.90;85.60
11426;DHT22;5769;47.998;7.788;2023-08-24T04:56:26;23.90;85.70
11426;DHT22;5769;47.998;7.788;2023-08-24T04:58:53;23.90;85.70
11426;DHT22;5769;47.998;7.788;2023-08-24T05:01:22;23.90;85.60
11426;DHT22;5769;47.998;7.788;2023-08-24T05:03:50;23.80;85.60
11426;DHT22;5769;47.998;7.788;2023-08-24T05:06:17;23.90;85.60
11426;DHT22;5769;47.998;7.788;2023-08-24T05:08:43;23.90;85.60
11426;DHT22;5769;47.998;7.788;2023-08-24T05:11:12;23.90;85.60
11426;DHT22;5769;47.998;7.788;2023-08-24T05:13:39;23.90;85.60
11426;DHT22;5769;47.998;7.788;2023-08-24T05:16:06;23.90;85.70
11426;DHT22;5769;47.998;7.788;2023-08-24T05:18:34;23.90;85.60
11426;DHT22;5769;47.998;7.788;2023-08-24T05:21:01;23.90;85.60
11426;DHT22;5769;47.998;7.788;2023-08-24T05:23:28;23.90;85.60
11426;DHT22;5769;47.998;7.788;2023-08-24T05:25:56;23.90;85.60
11426;DHT22;5769;47.998;7.788;2023-08-24T05:28:24;23.90;85.60
11426;DHT22;5769;47.998;7.788;2023-08-24T05:30:51;23.80;85.50
11426;DHT22;5769;47.998;7.788;2023-08-24T05:33:17;23.90;85.60
11426;DHT22;5769;47.998;7.788;2023-08-24T05:35:44;23.90;85.60
11426;DHT22;5769;47.998;7.788;2023-08-24T05:38:11;23.80;85.50
11426;DHT22;5769;47.998;7.788;2023-08-24T05:40:38;23.90;85.60
11426;DHT22;5769;47.998;7.788;2023-08-24T05:43:06;23.90;85.60
11426;DHT22;5769;47.998;7.788;2023-08-24T05:45:34;23.90;85.60
11426;DHT22;5769;47.998;7.788;2023-08-24T05:48:01;23.80;85.50
11426;DHT22;5769;47.998;7.788;2023-08-24T05:50:28;23.80;85.40
11426;DHT22;5769;47.998;7.788;2023-08-24T05:52:55;23.80;85.50
11426;DHT22;5769;47.998;7.788;2023-08-24T05:55:22;23.80;85.40
11426;DHT22;5769;47.998;7.788;2023-08-24T05:57:49;23.80;85.50
11426;DHT22;5769;47.998;7.788;2023-08-24T06:00:16;23.90;85.50
11426;DHT22;5769;47.998;7.788;2023-08-24T06:02:44;23.80;85.40
11426;DHT22;5769;47.998;7.788;2023-08-24T06:05:11;23.80;85.40
11426;DHT22;5769;47.998;7.788;2023-08-24T06:07:37;23.80;85.40
11426;DHT22;5769;47.998;7.788;2023-08-24T06:10:05;23.80;85.40
11426;DHT22;5769;47.998;7.788;2023-08-24T06:12:32;23.80;85.40
11426;DHT22;5769;47.998;7.788;2023-08-24T06:14:58;23.90;85.50
11426;DHT22;5769;47.998;7.788;2023-08-24T06:17:27;23.80;85.40
11426;DHT22;5769;47.998;7.788;2023-08-24T06:19:55;23.80;85.40
11426;DHT22;5769;47.998;7.788;2023-08-24T06:22:22;23.80;85.40
11426;DHT22;5769;47.998;7.788;2023-08-24T06:24:49;23.80;85.40
11426;DHT22;5769;47.998;7.788;2023-08-24T06:27:15;23.80;85.50
11426;DHT22;5769;47.998;7.788;2023-08-24T06:29:42;23.80;85.50
11426;DHT22;5769;47.998;7.788;2023-08-24T06:32:09;23.80;85.50
11426;DHT22;5769;47.998;7.788;2023-08-24T06:34:36;23.80;85.40
11426;DHT22;5769;47.998;7.788;2023-08-24T06:37:04;23.80;85.50
11426;DHT22;5769;47.998;7.788;2023-08-24T06:39:31;23.80;85.40
11426;DHT22;5769;47.998;7.788;2023-08-24T06:41:57;23.80;85.50
11426;DHT22;5769;47.998;7.788;2023-08-24T06:44:24;23.90;85.60
11426;DHT22;5769;47.998;7.788;2023-08-24T06:46:51;23.90;85.60
11426;DHT22;5769;47.998;7.788;2023-08-24T06:49:17;23.80;85.50
11426;DHT22;5769;47.998;7.788;2023-08-24T06:51:45;23.80;85.40
11426;DHT22;5769;47.998;7.788;2023-08-24T06:54:13;23.80;85.40
11426;DHT22;5769;47.998;7.788;2023-08-24T06:56:41;23.80;85.40
11426;DHT22;5769;47.998;7.788;2023-08-24T06:59:08;23.90;85.50
11426;DHT22;5769;47.998;7.788;2023-08-24T07:01:38;23.80;85.40
11426;DHT22;5769;47.998;7.788;2023-08-24T07:04:05;23.80;85.40
11426;DHT22;5769;47.998;7.788;2023-08-24T07:06:33;23.80;85.40
11426;DHT22;5769;47.998;7.788;2023-08-24T07:08:59;23.80;85.40
11426;DHT22;5769;47.998;7.788;2023-08-24T07:11:29;23.80;85.40
11426;DHT22;5769;47.998;7.788;2023-08-24T07:13:56;23.80;85.40
11426;DHT22;5769;47.998;7.788;2023-08-24T07:16:23;23.90;85.40
11426;DHT22;5769;47.998;7.788;2023-08-24T07:18:49;23.80;85.40
11426;DHT22;5769;47.998;7.788;2023-08-24T07:21:16;23.80;85.30
11426;DHT22;5769;47.998;7.788;2023-08-24T07:23:43;23.80;85.30
11426;DHT22;5769;47.998;7.788;2023-08-24T07:26:10;23.80;85.30
11426;DHT22;5769;47.998;7.788;2023-08-24T07:28:38;23.90;85.40
11426;DHT22;5769;47.998;7.788;2023-08-24T07:31:08;23.80;85.30
11426;DHT22;5769;47.998;7.788;2023-08-24T07:33:36;23.80;85.30
11426;DHT22;5769;47.998;7.788;2023-08-24T07:36:04;23.80;85.30
11426;DHT22;5769;47.998;7.788;2023-08-24T07:38:31;23.80;85.30
11426;DHT22;5769;47.998;7.788;2023-08-24T07:40:58;23.80;85.30
11426;DHT22;5769;47.998;7.788;2023-08-24T07:43:25;23.80;85.30
11426;DHT22;5769;47.998;7.788;2023-08-24T07:45:53;23.80;85.30
11426;DHT22;5769;47.998;7.788;2023-08-24T07:48:20;23.80;85.30
11426;DHT22;5769;47.998;7.788;2023-08-24T07:50:47;23.80;85.30
11426;DHT22;5769;47.998;7.788;2023-08-24T07:53:13;23.80;85.30
11426;DHT22;5769;47.998;7.788;2023-08-24T07:55:41;23.80;85.30
11426;DHT22;5769;47.998;7.788;2023-08-24T07:58:08;23.80;85.30
11426;DHT22;5769;47.998;7.788;2023-08-24T08:00:35;23.80;85.30
11426;DHT22;5769;47.998;7.788;2023-08-24T08:03:03;23.80;85.40
11426;DHT22;5769;47.998;7.788;2023-08-24T08:05:30;23.80;85.30
11426;DHT22;5769;47.998;7.788;2023-08-24T08:07:57;23.80;85.30
11426;DHT22;5769;47.998;7.788;2023-08-24T08:10:24;23.80;85.30
11426;DHT22;5769;47.998;7.788;2023-08-24T08:12:51;23.80;85.30
11426;DHT22;5769;47.998;7.788;2023-08-24T08:15:18;23.80;85.30
11426;DHT22;5769;47.998;7.788;2023-08-24T08:17:45;23.80;85.30
11426;DHT22;5769;47.998;7.788;2023-08-24T08:20:14;23.80;85.40
11426;DHT22;5769;47.998;7.788;2023-08-24T08:22:41;23.90;85.60
11426;DHT22;5769;47.998;7.788;2023-08-24T08:25:08;23.80;86.20
11426;DHT22;5769;47.998;7.788;2023-08-24T08:27:35;23.80;85.50
11426;DHT22;5769;47.998;7.788;2023-08-24T08:30:01;23.90;85.60
11426;DHT22;5769;47.998;7.788;2023-08-24T08:32:30;23.80;85.50
11426;DHT22;5769;47.998;7.788;2023-08-24T08:34:57;23.80;85.50
11426;DHT22;5769;47.998;7.788;2023-08-24T08:37:26;23.80;85.50
11426;DHT22;5769;47.998;7.788;2023-08-24T08:39:53;23.80;85.50
11426;DHT22;5769;47.998;7.788;2023-08-24T08:42:20;23.80;85.60
11426;DHT22;5769;47.998;7.788;2023-08-24T08:44:47;23.80;85.60
11426;DHT22;5769;47.998;7.788;2023-08-24T08:47:15;23.80;85.50
11426;DHT22;5769;47.998;7.788;2023-08-24T08:49:43;23.80;85.50
11426;DHT22;5769;47.998;7.788;2023-08-24T08:52:09;23.80;85.50
11426;DHT22;5769;47.998;7.788;2023-08-24T08:54:38;23.80;85.50
11426;DHT22;5769;47.998;7.788;2023-08-24T08:57:06;23.80;85.50
11426;DHT22;5769;47.998;7.788;2023-08-24T08:59:34;23.80;85.40
11426;DHT22;5769;47.998;7.788;2023-08-24T09:02:01;23.80;85.40
11426;DHT22;5769;47.998;7.788;2023-08-24T09:04:31;23.80;85.40
11426;DHT22;5769;47.998;7.788;2023-08-24T09:06:58;23.80;85.60
11426;DHT22;5769;47.998;7.788;2023-08-24T09:09:26;23.80;85.50
11426;DHT22;5769;47.998;7.788;2023-08-24T09:11:54;23.80;85.40
11426;DHT22;5769;47.998;7.788;2023-08-24T09:14:21;23.80;85.50
11426;DHT22;5769;47.998;7.788;2023-08-24T09:16:48;23.80;85.50
11426;DHT22;5769;47.998;7.788;2023-08-24T09:19:15;23.90;85.60
11426;DHT22;5769;47.998;7.788;2023-08-24T09:21:42;23.90;85.50
11426;DHT22;5769;47.998;7.788;2023-08-24T09:24:10;23.90;85.50
11426;DHT22;5769;47.998;7.788;2023-08-24T09:26:38;23.90;85.50
11426;DHT22;5769;47.998;7.788;2023-08-24T09:29:13;23.90;85.50
11426;DHT22;5769;47.998;7.788;2023-08-24T09:31:40;23.90;85.50
11426;DHT22;5769;47.998;7.788;2023-08-24T09:34:09;23.90;85.50
11426;DHT22;5769;47.998;7.788;2023-08-24T09:36:37;23.90;85.50
11426;DHT22;5769;47.998;7.788;2023-08-24T09:39:04;23.90;85.50
11426;DHT22;5769;47.998;7.788;2023-08-24T09:41:43;23.90;85.50
11426;DHT22;5769;47.998;7.788;2023-08-24T09:44:11;23.90;85.40
11426;DHT22;5769;47.998;7.788;2023-08-24T09:46:39;24.00;85.50
11426;DHT22;5769;47.998;7.788;2023-08-24T09:49:07;24.00;85.50
11426;DHT22;5769;47.998;7.788;2023-08-24T09:51:34;24.00;85.50
11426;DHT22;5769;47.998;7.788;2023-08-24T09:54:04;24.00;85.50
11426;DHT22;5769;47.998;7.788;2023-08-24T09:56:35;24.00;85.40
11426;DHT22;5769;47.998;7.788;2023-08-24T09:59:11;24.00;85.40
11426;DHT22;5769;47.998;7.788;2023-08-24T10:01:42;24.00;85.50
11426;DHT22;5769;47.998;7.788;2023-08-24T10:04:09;24.00;85.40
11426;DHT22;5769;47.998;7.788;2023-08-24T10:06:38;24.00;85.50
11426;DHT22;5769;47.998;7.788;2023-08-24T10:09:07;24.00;85.50
11426;DHT22;5769;47.998;7.788;2023-08-24T10:11:36;24.00;85.50
11426;DHT22;5769;47.998;7.788;2023-08-24T10:14:10;24.00;85.50
11426;DHT22;5769;47.998;7.788;2023-08-24T10:16:41;24.00;85.50
11426;DHT22;5769;47.998;7.788;2023-08-24T10:19:09;24.00;85.40
11426;DHT22;5769;47.998;7.788;2023-08-24T10:21:37;24.00;85.50
11426;DHT22;5769;47.998;7.788;2023-08-24T10:24:05;24.00;85.40
11426;DHT22;5769;47.998;7.788;2023-08-24T10:26:33;24.00;85.40
11426;DHT22;5769;47.998;7.788;2023-08-24T10:29:00;24.00;85.40
11426;DHT22;5769;47.998;7.788;2023-08-24T10:31:28;24.00;85.30
11426;DHT22;5769;47.998;7.788;2023-08-24T10:33:57;24.00;85.20
11426;DHT22;5769;47.998;7.788;2023-08-24T10:36:24;24.00;85.10
11426;DHT22;5769;47.998;7.788;2023-08-24T10:38:55;24.10;85.30
11426;DHT22;5769;47.998;7.788;2023-08-24T10:41:26;24.00;85.20
11426;DHT22;5769;47.998;7.788;2023-08-24T10:44:04;24.10;85.30
11426;DHT22;5769;47.998;7.788;2023-08-24T10:46:34;24.10;85.20
11426;DHT22;5769;47.998;7.788;2023-08-24T10:49:04;24.10;84.70
11426;DHT22;5769;47.998;7.788;2023-08-24T10:51:30;24.10;84.80
11426;DHT22;5769;47.998;7.788;2023-08-24T10:53:58;24.10;84.80
11426;DHT22;5769;47.998;7.788;2023-08-24T10:56:31;24.10;84.80
11426;DHT22;5769;47.998;7.788;2023-08-24T10:59:14;24.10;84.70
11426;DHT22;5769;47.998;7.788;2023-08-24T11:01:42;24.10;84.70
11426;DHT22;5769;47.998;7.788;2023-08-24T11:04:10;24.10;84.60
11426;DHT22;5769;47.998;7.788;2023-08-24T11:06:51;24.10;84.60
11426;DHT22;5769;47.998;7.788;2023-08-24T11:09:19;24.10;84.40
11426;DHT22;5769;47.998;7.788;2023-08-24T11:11:56;24.10;84.40
11426;DHT22;5769;47.998;7.788;2023-08-24T11:14:23;24.10;84.30
11426;DHT22;5769;47.998;7.788;2023-08-24T11:16:52;24.10;84.20
11426;DHT22;5769;47.998;7.788;2023-08-24T11:19:20;24.10;84.20
11426;DHT22;5769;47.998;7.788;2023-08-24T11:21:47;24.10;84.30
11426;DHT22;5769;47.998;7.788;2023-08-24T11:24:15;24.10;84.90
11426;DHT22;5769;47.998;7.788;2023-08-24T11:26:44;24.10;84.20
11426;DHT22;5769;47.998;7.788;2023-08-24T11:29:11;24.10;84.30
11426;DHT22;5769;47.998;7.788;2023-08-24T11:31:38;24.10;84.30
11426;DHT22;5769;47.998;7.788;2023-08-24T11:34:05;24.20;84.30
11426;DHT22;5769;47.998;7.788;2023-08-24T11:36:42;24.10;84.20
11426;DHT22;5769;47.998;7.788;2023-08-24T11:39:15;24.10;84.20
11426;DHT22;5769;47.998;7.788;2023-08-24T11:41:43;24.10;84.20
11426;DHT22;5769;47.998;7.788;2023-08-24T11:44:10;24.10;84.10
11426;DHT22;5769;47.998;7.788;2023-08-24T11:46:37;24.10;84.20
11426;DHT22;5769;47.998;7.788;2023-08-24T11:49:04;24.10;84.10
11426;DHT22;5769;47.998;7.788;2023-08-24T11:51:31;24.10;84.00
11426;DHT22;5769;47.998;7.788;2023-08-24T11:54:01;24.10;84.00
11426;DHT22;5769;47.998;7.788;2023-08-24T11:56:29;24.10;84.00
11426;DHT22;5769;47.998;7.788;2023-08-24T11:58:56;24.10;84.00
11426;DHT22;5769;47.998;7.788;2023-08-24T12:01:23;24.10;84.00
11426;DHT22;5769;47.998;7.788;2023-08-24T12:03:52;24.10;84.10
11426;DHT22;5769;47.998;7.788;2023-08-24T12:06:19;24.10;84.10
11426;DHT22;5769;47.998;7.788;2023-08-24T12:08:47;24.10;84.20
11426;DHT22;5769;47.998;7.788;2023-08-24T12:11:16;24.10;84.30
11426;DHT22;5769;47.998;7.788;2023-08-24T12:13:44;24.10;84.30
11426;DHT22;5769;47.998;7.788;2023-08-24T12:16:12;24.20;84.50
11426;DHT22;5769;47.998;7.788;2023-08-24T12:18:50;24.10;84.40
11426;DHT22;5769;47.998;7.788;2023-08-24T12:21:17;24.20;84.50
11426;DHT22;5769;47.998;7.788;2023-08-24T12:23:45;24.20;84.40
11426;DHT22;5769;47.998;7.788;2023-08-24T12:26:22;24.20;84.30
11426;DHT22;5769;47.998;7.788;2023-08-24T12:28:50;24.20;84.50
11426;DHT22;5769;47.998;7.788;2023-08-24T12:31:30;24.20;84.50
11426;DHT22;5769;47.998;7.788;2023-08-24T12:34:01;24.20;84.90
11426;DHT22;5769;47.998;7.788;2023-08-24T12:36:32;24.20;84.60
11426;DHT22;5769;47.998;7.788;2023-08-24T12:39:05;24.20;84.50
11426;DHT22;5769;47.998;7.788;2023-08-24T12:41:34;24.20;84.60
11426;DHT22;5769;47.998;7.788;2023-08-24T12:44:10;24.20;84.60
11426;DHT22;5769;47.998;7.788;2023-08-24T12:46:40;24.20;84.60
11426;DHT22;5769;47.998;7.788;2023-08-24T12:49:08;24.20;84.60
11426;DHT22;5769;47.998;7.788;2023-08-24T12:51:37;24.20;84.60
11426;DHT22;5769;47.998;7.788;2023-08-24T12:54:06;24.20;84.60
11426;DHT22;5769;47.998;7.788;2023-08-24T12:56:39;24.20;84.60
11426;DHT22;5769;47.998;7.788;2023-08-24T12:59:06;24.20;84.60
11426;DHT22;5769;47.998;7.788;2023-08-24T13:01:33;24.20;84.60
11426;DHT22;5769;47.998;7.788;2023-08-24T13:04:03;24.20;84.60
11426;DHT22;5769;47.998;7.788;2023-08-24T13:06:30;24.20;84.60
11426;DHT22;5769;47.998;7.788;2023-08-24T13:09:04;24.20;84.60
11426;DHT22;5769;47.998;7.788;2023-08-24T13:11:32;24.20;84.60
11426;DHT22;5769;47.998;7.788;2023-08-24T13:14:06;24.20;84.60
11426;DHT22;5769;47.998;7.788;2023-08-24T13:16:35;24.20;84.60
11426;DHT22;5769;47.998;7.788;2023-08-24T13:19:12;24.20;84.60
11426;DHT22;5769;47.998;7.788;2023-08-24T13:21:46;24.20;84.60
11426;DHT22;5769;47.998;7.788;2023-08-24T13:24:15;24.20;84.60
11426;DHT22;5769;47.998;7.788;2023-08-24T13:26:48;24.20;84.50
11426;DHT22;5769;47.998;7.788;2023-08-24T13:29:19;24.20;84.60
11426;DHT22;5769;47.998;7.788;2023-08-24T13:31:51;24.20;84.60
11426;DHT22;5769;47.998;7.788;2023-08-24T13:34:21;24.20;84.50
11426;DHT22;5769;47.998;7.788;2023-08-24T13:36:57;24.20;84.40
11426;DHT22;5769;47.998;7.788;2023-08-24T13:39:40;24.20;84.30
11426;DHT22;5769;47.998;7.788;2023-08-24T13:42:15;24.20;84.30
11426;DHT22;5769;47.998;7.788;2023-08-24T13:44:46;24.20;84.40
11426;DHT22;5769;47.998;7.788;2023-08-24T13:47:14;24.20;84.50
11426;DHT22;5769;47.998;7.788;2023-08-24T13:49:41;24.20;84.50
11426;DHT22;5769;47.998;7.788;2023-08-24T13:52:08;24.30;84.60
11426;DHT22;5769;47.998;7.788;2023-08-24T13:54:37;24.20;84.50
11426;DHT22;5769;47.998;7.788;2023-08-24T13:57:04;24.20;84.50
11426;DHT22;5769;47.998;7.788;2023-08-24T13:59:32;24.20;84.50
11426;DHT22;5769;47.998;7.788;2023-08-24T14:02:04;24.30;84.60
11426;DHT22;5769;47.998;7.788;2023-08-24T14:04:34;24.20;84.50
11426;DHT22;5769;47.998;7.788;2023-08-24T14:07:02;24.30;84.60
11426;DHT22;5769;47.998;7.788;2023-08-24T14:09:32;24.30;84.60
11426;DHT22;5769;47.998;7.788;2023-08-24T14:12:01;24.20;84.50
11426;DHT22;5769;47.998;7.788;2023-08-24T14:14:35;24.30;84.60
11426;DHT22;5769;47.998;7.788;2023-08-24T14:17:10;24.30;84.60
11426;DHT22;5769;47.998;7.788;2023-08-24T14:19:37;24.20;84.50
11426;DHT22;5769;47.998;7.788;2023-08-24T14:22:05;24.30;84.60
11426;DHT22;5769;47.998;7.788;2023-08-24T14:24:35;24.30;84.60
11426;DHT22;5769;47.998;7.788;2023-08-24T14:27:03;24.30;84.60
11426;DHT22;5769;47.998;7.788;2023-08-24T14:29:34;24.30;84.60
11426;DHT22;5769;47.998;7.788;2023-08-24T14:32:07;24.30;84.60
11426;DHT22;5769;47.998;7.788;2023-08-24T14:34:40;24.30;84.50
11426;DHT22;5769;47.998;7.788;2023-08-24T14:37:15;24.30;84.50
11426;DHT22;5769;47.998;7.788;2023-08-24T14:39:42;24.30;84.60
11426;DHT22;5769;47.998;7.788;2023-08-24T14:42:09;24.30;84.50
11426;DHT22;5769;47.998;7.788;2023-08-24T14:44:37;24.30;84.50
11426;DHT22;5769;47.998;7.788;2023-08-24T14:47:08;24.30;84.50
11426;DHT22;5769;47.998;7.788;2023-08-24T14:49:35;24.30;84.40
11426;DHT22;5769;47.998;7.788;2023-08-24T14:52:03;24.30;84.40
11426;DHT22;5769;47.998;7.788;2023-08-24T14:54:30;24.30;84.40
11426;DHT22;5769;47.998;7.788;2023-08-24T14:57:00;24.30;84.40
11426;DHT22;5769;47.998;7.788;2023-08-24T14:59:28;24.30;84.40
11426;DHT22;5769;47.998;7.788;2023-08-24T15:01:55;24.30;84.40
11426;DHT22;5769;47.998;7.788;2023-08-24T15:04:27;24.30;84.30
11426;DHT22;5769;47.998;7.788;2023-08-24T15:06:54;24.30;84.30
11426;DHT22;5769;47.998;7.788;2023-08-24T15:09:21;24.30;84.30
11426;DHT22;5769;47.998;7.788;2023-08-24T15:11:49;24.30;84.30
11426;DHT22;5769;47.998;7.788;2023-08-24T15:14:20;24.30;84.20
11426;DHT22;5769;47.998;7.788;2023-08-24T15:16:53;24.30;84.10
11426;DHT22;5769;47.998;7.788;2023-08-24T15:19:29;24.30;84.20
11426;DHT22;5769;47.998;7.788;2023-08-24T15:21:56;24.30;84.30
11426;DHT22;5769;47.998;7.788;2023-08-24T15:24:24;24.30;84.10
11426;DHT22;5769;47.998;7.788;2023-08-24T15:26:50;24.30;84.20
11426;DHT22;5769;47.998;7.788;2023-08-24T15:29:24;24.30;84.20
11426;DHT22;5769;47.998;7.788;2023-08-24T15:31:52;24.30;84.20
11426;DHT22;5769;47.998;7.788;2023-08-24T15:34:19;24.30;84.00
11426;DHT22;5769;47.998;7.788;2023-08-24T15:36:56;24.30;84.00
11426;DHT22;5769;47.998;7.788;2023-08-24T15:39:25;24.30;84.10
11426;DHT22;5769;47.998;7.788;2023-08-24T15:41:52;24.30;84.10
11426;DHT22;5769;47.998;7.788;2023-08-24T15:44:24;24.30;84.10
11426;DHT22;5769;47.998;7.788;2023-08-24T15:46:58;24.30;84.10
11426;DHT22;5769;47.998;7.788;2023-08-24T15:49:30;24.30;84.10
11426;DHT22;5769;47.998;7.788;2023-08-24T15:52:05;24.30;84.80